Ms Chievous — WCY8284 — position and weather

sailwx.info

Track history (hours):
 
Tides and Currents Weather Stations Pressure Air Temp Water Temp Dewpoint Dewpoint Depression Visibility Wind Speed Wind Dir Waves Ship Positions

Ms Chievous

Owner: AUBUCHON, JAMES P, Seattle, WA. More information available from US FCC via Universal Licensing System.

Last reported at 2018-Jun-10 19:36 UTC. Time now 2018-Jun-23 14:17 UTC.
Position N 48°32' W 122°47'.
Warning: this ship's position is 12 days out of date.

Type: Sailing vessel. MMSI: 366760040.

Date/timePositionNaut miles runAvg speedWind from/ knotsBaromVisibWave heightAir tempDewpointWater temp
2018-Jun-10 19:36N 48°32' W 122°47'1 5.6
2018-Jun-10 19:29N 48°32' W 122°48'4 6.1
2018-Jun-10 18:51N 48°34' W 122°52'2 6.3
2018-Jun-10 18:30N 48°33' W 122°55'3 5.8
2018-Jun-10 18:00N 48°32' W 122°60'1 0.0
2018-Jun-09 05:46N 48°32' W 123°00'0 0.9
2018-Jun-09 05:29N 48°32' W 122°60'2 3.5
2018-Jun-09 05:00N 48°33' W 122°57'3 6.6
2018-Jun-09 04:30N 48°34' W 122°53'  
2018-Jun-03 15:24N 48°32' W 122°44'5 0.3
2018-Jun-02 20:09N 48°37' W 122°46'1 3.7
2018-Jun-02 19:58N 48°36' W 122°47'1 1.8
2018-Jun-02 19:11N 48°36' W 122°49'1 5.1
2018-Jun-02 18:59N 48°35' W 122°50'2 3.7
2018-Jun-02 18:29N 48°33' W 122°50'3 0.2
2018-Jun-02 02:17N 48°31' W 122°50'  
Track history (hours):
 
Tides and Currents Weather Stations Pressure Air Temp Water Temp Dewpoint Dewpoint Depression Visibility Wind Speed Wind Dir Waves Ship Positions

Ms Chievous

Owner: AUBUCHON, JAMES P, Seattle, WA. More information available from US FCC via Universal Licensing System.

Last reported at 2018-Jun-10 19:36 UTC. Time now 2018-Jun-23 14:17 UTC.
Position N 48°32' W 122°47'.
Warning: this ship's position is 12 days out of date.

Type: Sailing vessel. MMSI: 366760040.

Date/timePositionNaut miles runAvg speedWind from/ knotsBaromVisibWave heightAir tempDewpointWater temp
2018-Jun-10 19:36N 48°32' W 122°47'1 5.6
2018-Jun-10 19:29N 48°32' W 122°48'4 6.1
2018-Jun-10 18:51N 48°34' W 122°52'2 6.3
2018-Jun-10 18:30N 48°33' W 122°55'3 5.8
2018-Jun-10 18:00N 48°32' W 122°60'1 0.0
2018-Jun-09 05:46N 48°32' W 123°00'0 0.9
2018-Jun-09 05:29N 48°32' W 122°60'2 3.5
2018-Jun-09 05:00N 48°33' W 122°57'3 6.6
2018-Jun-09 04:30N 48°34' W 122°53'  
2018-Jun-03 15:24N 48°32' W 122°44'5 0.3
2018-Jun-02 20:09N 48°37' W 122°46'1 3.7
2018-Jun-02 19:58N 48°36' W 122°47'1 1.8
2018-Jun-02 19:11N 48°36' W 122°49'1 5.1
2018-Jun-02 18:59N 48°35' W 122°50'2 3.7
2018-Jun-02 18:29N 48°33' W 122°50'3 0.2
2018-Jun-02 02:17N 48°31' W 122°50'  

Dump ship's entire track history